createdAt,value
2023-02-14T00:01:12.515Z,8.43
2023-02-14T00:03:40.232Z,8.50
2023-02-14T00:06:13.479Z,8.10
2023-02-14T00:08:44.454Z,8.10
2023-02-14T00:11:12.358Z,8.00
2023-02-14T00:13:39.711Z,7.77
2023-02-14T00:16:07.502Z,7.57
2023-02-14T00:18:53.670Z,7.87
2023-02-14T00:21:21.090Z,8.60
2023-02-14T00:23:48.533Z,7.23
2023-02-14T00:26:22.216Z,7.77
2023-02-14T00:28:49.491Z,8.50
2023-02-14T00:31:17.016Z,9.50
2023-02-14T00:33:44.344Z,9.40
2023-02-14T00:36:12.250Z,8.63
2023-02-14T00:38:39.474Z,8.73
2023-02-14T00:41:06.688Z,8.80
2023-02-14T00:43:34.356Z,9.30
2023-02-14T00:46:01.926Z,8.60
2023-02-14T00:48:29.803Z,11.83
2023-02-14T00:50:57.633Z,12.90
2023-02-14T00:53:25.547Z,14.83
2023-02-14T00:55:53.315Z,13.80
2023-02-14T00:58:20.605Z,11.73
2023-02-14T01:00:47.990Z,9.70
2023-02-14T01:03:15.347Z,10.93
2023-02-14T01:05:42.621Z,10.93
2023-02-14T01:08:09.867Z,11.27
2023-02-14T01:10:38.027Z,9.33
2023-02-14T01:13:05.384Z,11.17
2023-02-14T01:15:33.278Z,9.83
2023-02-14T01:18:00.592Z,10.37
2023-02-14T01:20:28.425Z,11.33
2023-02-14T01:22:55.665Z,10.57
2023-02-14T01:25:22.908Z,11.10
2023-02-14T01:27:50.390Z,10.97
2023-02-14T01:30:18.501Z,10.37
2023-02-14T01:32:46.338Z,10.83
2023-02-14T01:35:13.663Z,10.43
2023-02-14T01:37:40.918Z,9.97
2023-02-14T01:40:09.025Z,9.77
2023-02-14T01:42:36.472Z,8.83
2023-02-14T01:45:23.274Z,9.20
2023-02-14T01:47:53.762Z,9.63
2023-02-14T01:50:24.686Z,10.00
2023-02-14T01:52:56.058Z,11.10
2023-02-14T01:55:25.426Z,10.50
2023-02-14T01:57:58.904Z,11.57
2023-02-14T02:00:44.851Z,10.83
2023-02-14T02:03:12.735Z,8.50
2023-02-14T02:05:43.274Z,10.90
2023-02-14T02:08:10.884Z,9.87
2023-02-14T02:10:38.459Z,9.77
2023-02-14T02:13:07.187Z,9.27
2023-02-14T02:16:05.279Z,10.10
2023-02-14T02:18:52.670Z,9.77
2023-02-14T02:21:35.248Z,9.60
2023-02-14T02:24:37.509Z,8.53
2023-02-14T02:27:38.542Z,10.63
2023-02-14T02:30:42.364Z,9.40
2023-02-14T02:33:37.892Z,8.60
2023-02-14T02:36:29.775Z,8.17
2023-02-14T02:39:10.703Z,9.43
2023-02-14T02:41:56.388Z,8.53
2023-02-14T02:44:51.278Z,9.33
2023-02-14T02:47:30.409Z,10.90
2023-02-14T02:50:45.904Z,8.57
2023-02-14T02:53:25.323Z,8.50
2023-02-14T02:56:17.306Z,8.40
2023-02-14T02:58:53.839Z,8.07
2023-02-14T03:01:29.245Z,10.77
2023-02-14T03:04:20.411Z,7.80
2023-02-14T03:06:48.642Z,7.10
2023-02-14T03:09:28.204Z,7.67
2023-02-14T03:12:10.464Z,7.80
2023-02-14T03:14:51.016Z,8.50
2023-02-14T03:17:23.254Z,7.87
2023-02-14T03:20:15.457Z,10.60
2023-02-14T03:23:03.060Z,7.60
2023-02-14T03:25:42.760Z,10.67
2023-02-14T03:28:36.168Z,9.87
2023-02-14T03:31:28.603Z,8.83
2023-02-14T03:34:28.551Z,9.83
2023-02-14T03:37:14.784Z,6.60
2023-02-14T03:40:07.022Z,7.87
2023-02-14T03:42:56.306Z,7.83
2023-02-14T03:45:40.862Z,7.57
2023-02-14T03:48:10.550Z,8.30
2023-02-14T03:50:38.359Z,6.70
2023-02-14T03:53:05.519Z,6.80
2023-02-14T03:55:39.202Z,7.13
2023-02-14T03:58:26.143Z,7.73
2023-02-14T04:00:55.242Z,7.63
2023-02-14T04:03:23.833Z,8.63
2023-02-14T04:05:52.736Z,7.80
2023-02-14T04:08:27.856Z,6.80
2023-02-14T04:10:55.193Z,8.20
2023-02-14T04:13:22.788Z,8.07
2023-02-14T04:15:50.137Z,7.70
2023-02-14T04:18:36.475Z,8.10
2023-02-14T04:21:04.538Z,7.97
2023-02-14T04:23:31.940Z,8.40
2023-02-14T04:25:59.642Z,8.50
2023-02-14T04:28:27.131Z,8.07
2023-02-14T04:30:54.674Z,7.40
2023-02-14T04:33:22.071Z,8.60
2023-02-14T04:35:49.986Z,7.40
2023-02-14T04:38:17.251Z,8.97
2023-02-14T04:40:44.777Z,7.57
2023-02-14T04:43:12.131Z,8.90
2023-02-14T04:45:39.377Z,8.67
2023-02-14T04:48:06.546Z,7.40
2023-02-14T04:50:33.744Z,8.53
2023-02-14T04:53:01.402Z,8.17
2023-02-14T04:55:29.052Z,8.00
2023-02-14T04:57:56.870Z,7.60
2023-02-14T05:00:24.914Z,7.80
2023-02-14T05:02:52.192Z,7.77
2023-02-14T05:05:19.451Z,8.73
2023-02-14T05:07:48.295Z,8.80
2023-02-14T05:10:15.719Z,7.90
2023-02-14T05:12:43.269Z,10.20
2023-02-14T05:15:10.824Z,7.77
2023-02-14T05:17:38.340Z,8.70
2023-02-14T05:20:07.005Z,8.20
2023-02-14T05:22:34.427Z,15.30
2023-02-14T05:25:02.050Z,8.73
2023-02-14T05:27:29.640Z,7.03
2023-02-14T05:29:57.387Z,6.70
2023-02-14T05:32:25.235Z,7.30
2023-02-14T05:34:52.620Z,7.27
2023-02-14T05:37:20.045Z,6.30
2023-02-14T05:39:47.935Z,7.33
2023-02-14T05:42:15.431Z,7.87
2023-02-14T05:44:43.214Z,6.57
2023-02-14T05:47:13.040Z,6.57
2023-02-14T05:49:40.780Z,6.87
2023-02-14T05:52:08.232Z,7.03
2023-02-14T05:54:37.718Z,7.90
2023-02-14T05:57:05.208Z,7.73
2023-02-14T05:59:32.833Z,7.83
2023-02-14T06:02:00.593Z,6.93
2023-02-14T06:04:28.103Z,7.93
2023-02-14T06:06:55.655Z,7.47
2023-02-14T06:09:23.234Z,7.33
2023-02-14T06:11:51.645Z,7.70
2023-02-14T06:14:20.069Z,7.43
2023-02-14T06:16:47.755Z,10.57
2023-02-14T06:19:15.333Z,11.23
2023-02-14T06:21:42.502Z,10.77
2023-02-14T06:24:09.778Z,11.97
2023-02-14T06:26:37.293Z,10.77
2023-02-14T06:29:04.594Z,10.73
2023-02-14T06:31:32.476Z,8.13
2023-02-14T06:33:59.981Z,9.70
2023-02-14T06:36:27.898Z,9.23
2023-02-14T06:38:55.560Z,8.83
2023-02-14T06:41:22.858Z,9.80
2023-02-14T06:43:50.159Z,9.83
2023-02-14T06:46:18.249Z,8.00
2023-02-14T06:48:45.815Z,8.90
2023-02-14T06:51:13.580Z,9.93
2023-02-14T06:53:41.019Z,9.07
2023-02-14T06:56:08.684Z,11.50
2023-02-14T06:58:36.419Z,8.30
2023-02-14T07:01:04.043Z,9.07
2023-02-14T07:03:31.546Z,8.37
2023-02-14T07:05:59.088Z,8.60
2023-02-14T07:08:27.073Z,8.43
2023-02-14T07:10:58.736Z,8.67
2023-02-14T07:13:26.456Z,10.00
2023-02-14T07:15:54.007Z,8.83
2023-02-14T07:18:21.354Z,9.97
2023-02-14T07:20:52.943Z,9.20
2023-02-14T07:23:20.207Z,8.80
2023-02-14T07:25:47.905Z,8.90
2023-02-14T07:28:15.344Z,7.67
2023-02-14T07:30:42.948Z,8.33
2023-02-14T07:33:10.326Z,9.33
2023-02-14T07:35:37.963Z,8.20
2023-02-14T07:38:05.354Z,8.30
2023-02-14T07:40:32.971Z,9.00
2023-02-14T07:43:01.546Z,9.40
2023-02-14T07:45:28.787Z,8.63
2023-02-14T07:47:56.290Z,9.13
2023-02-14T07:50:23.867Z,7.67
2023-02-14T07:52:54.430Z,8.03
2023-02-14T07:55:23.351Z,7.67
2023-02-14T07:57:51.142Z,8.33
2023-02-14T08:00:18.831Z,7.93
2023-02-14T08:02:47.317Z,7.97
2023-02-14T08:05:15.317Z,8.20
2023-02-14T08:07:44.484Z,8.80
2023-02-14T08:10:13.137Z,8.10
2023-02-14T08:12:59.506Z,6.90
2023-02-14T08:15:53.093Z,8.30
2023-02-14T08:18:23.578Z,7.30
2023-02-14T08:20:51.473Z,7.67
2023-02-14T08:23:19.168Z,7.67
2023-02-14T08:25:47.238Z,7.30
2023-02-14T08:28:15.633Z,7.27
2023-02-14T08:30:43.174Z,7.30
2023-02-14T08:33:10.462Z,7.77
2023-02-14T08:35:37.781Z,7.20
2023-02-14T08:38:05.496Z,6.73
2023-02-14T08:40:33.745Z,7.07
2023-02-14T08:43:01.133Z,7.13
2023-02-14T08:45:28.310Z,7.03
2023-02-14T08:47:56.212Z,6.60
2023-02-14T08:50:23.465Z,6.60
2023-02-14T08:52:51.130Z,6.83
2023-02-14T08:55:19.172Z,7.67
2023-02-14T08:57:51.610Z,6.73
2023-02-14T09:00:20.072Z,6.03
2023-02-14T09:02:52.463Z,6.73
2023-02-14T09:05:21.078Z,7.20
2023-02-14T09:07:48.465Z,6.10
2023-02-14T09:10:16.017Z,6.87
2023-02-14T09:12:43.480Z,7.77
2023-02-14T09:15:11.078Z,8.13
2023-02-14T09:17:38.894Z,7.17
2023-02-14T09:20:07.932Z,63.90
2023-02-14T09:22:35.351Z,28.20
2023-02-14T09:25:02.876Z,9.03
2023-02-14T09:27:30.774Z,104.00
2023-02-14T09:29:58.081Z,91.80
2023-02-14T09:32:26.918Z,110.90
2023-02-14T09:35:12.934Z,139.03
2023-02-14T09:37:59.344Z,31.57
2023-02-14T09:40:26.810Z,54.40
2023-02-14T09:43:10.607Z,10.43
2023-02-14T09:45:38.052Z,8.93
2023-02-14T09:48:28.259Z,8.63
2023-02-14T09:50:59.210Z,8.93
2023-02-14T09:53:26.765Z,8.63
2023-02-14T09:56:10.833Z,11.03
2023-02-14T09:58:54.559Z,12.13
2023-02-14T10:01:42.894Z,97.17
2023-02-14T10:04:39.845Z,24.53
2023-02-14T10:07:31.867Z,15.30
2023-02-14T10:10:10.920Z,9.97
2023-02-14T10:13:06.024Z,16.80
2023-02-14T10:15:59.380Z,14.57
2023-02-14T10:18:47.586Z,13.83
2023-02-14T10:21:26.221Z,11.13
2023-02-14T10:24:00.945Z,10.53
2023-02-14T10:26:30.902Z,10.23
2023-02-14T10:28:58.281Z,11.03
2023-02-14T10:31:44.047Z,9.47
2023-02-14T10:34:33.486Z,9.57
2023-02-14T10:37:24.470Z,8.57
2023-02-14T10:40:19.721Z,9.47
2023-02-14T10:43:24.257Z,10.50
2023-02-14T10:45:58.899Z,10.63
2023-02-14T10:48:41.592Z,9.07
2023-02-14T10:51:26.107Z,11.10
2023-02-14T10:54:14.513Z,10.33
2023-02-14T10:56:45.660Z,8.87
2023-02-14T10:59:56.804Z,9.37
2023-02-14T11:02:28.148Z,9.77
2023-02-14T11:04:55.366Z,9.00
2023-02-14T11:07:23.234Z,8.23
2023-02-14T11:09:50.607Z,9.17
2023-02-14T11:12:38.030Z,9.17
2023-02-14T11:15:11.087Z,10.40
2023-02-14T11:17:38.549Z,9.47
2023-02-14T11:20:23.316Z,9.20
2023-02-14T11:22:50.812Z,8.90
2023-02-14T11:25:26.792Z,10.10
2023-02-14T11:28:16.570Z,8.87
2023-02-14T11:30:45.878Z,9.53
2023-02-14T11:33:22.819Z,9.63
2023-02-14T11:35:53.434Z,10.20
2023-02-14T11:38:34.361Z,9.73
2023-02-14T11:41:02.121Z,9.63
2023-02-14T11:43:39.182Z,9.53
2023-02-14T11:46:21.813Z,8.80
2023-02-14T11:49:02.734Z,9.33
2023-02-14T11:51:39.352Z,8.93
2023-02-14T11:54:06.751Z,11.70
2023-02-14T11:56:54.526Z,12.10
2023-02-14T11:59:37.020Z,8.50
2023-02-14T12:02:15.185Z,11.00
2023-02-14T12:04:46.552Z,9.13
2023-02-14T12:07:16.664Z,9.00
2023-02-14T12:09:44.598Z,9.07
2023-02-14T12:12:29.876Z,15.47
2023-02-14T12:15:35.753Z,8.37
2023-02-14T12:18:06.887Z,9.03
2023-02-14T12:20:59.370Z,8.83
2023-02-14T12:23:48.723Z,7.47
2023-02-14T12:26:32.785Z,8.33
2023-02-14T12:29:28.207Z,7.93
2023-02-14T12:31:57.087Z,8.40
2023-02-14T12:34:24.283Z,8.87
2023-02-14T12:37:22.323Z,8.47
2023-02-14T12:40:03.646Z,8.30
2023-02-14T12:42:44.817Z,7.87
2023-02-14T12:45:49.825Z,8.57
2023-02-14T12:48:17.470Z,9.73
2023-02-14T12:50:48.830Z,8.73
2023-02-14T12:53:49.013Z,8.23
2023-02-14T12:56:19.548Z,7.93
2023-02-14T12:58:56.713Z,8.07
2023-02-14T13:01:38.733Z,7.07
2023-02-14T13:04:56.621Z,7.80
2023-02-14T13:07:39.816Z,8.67
2023-02-14T13:10:16.838Z,8.10
2023-02-14T13:13:15.612Z,8.33
2023-02-14T13:15:45.929Z,15.47
2023-02-14T13:18:13.353Z,8.70
2023-02-14T13:20:42.919Z,8.70
2023-02-14T13:23:53.792Z,9.20
2023-02-14T13:26:32.750Z,8.30
2023-02-14T13:29:03.935Z,8.87
2023-02-14T13:31:32.074Z,8.67
2023-02-14T13:34:07.535Z,9.33
2023-02-14T13:36:35.247Z,10.00
2023-02-14T13:39:02.668Z,9.53
2023-02-14T13:41:30.442Z,8.93
2023-02-14T13:44:00.774Z,9.30
2023-02-14T13:46:33.938Z,9.10
2023-02-14T13:49:20.541Z,8.80
2023-02-14T13:51:49.550Z,9.90
2023-02-14T13:54:34.982Z,9.30
2023-02-14T13:57:21.743Z,8.83
2023-02-14T13:59:49.348Z,9.70
2023-02-14T14:02:55.622Z,9.93
2023-02-14T14:05:39.858Z,10.63
2023-02-14T14:08:22.648Z,9.27
2023-02-14T14:11:03.966Z,8.90
2023-02-14T14:13:45.148Z,11.17
2023-02-14T14:16:28.536Z,9.53
2023-02-14T14:19:08.709Z,10.43
2023-02-14T14:21:44.388Z,10.13
2023-02-14T14:24:28.303Z,9.73
2023-02-14T14:26:59.336Z,10.80
2023-02-14T14:29:32.635Z,10.67
2023-02-14T14:32:01.316Z,9.80
2023-02-14T14:34:28.760Z,10.23
2023-02-14T14:37:07.174Z,9.80
2023-02-14T14:39:35.495Z,11.10
2023-02-14T14:42:15.834Z,9.37
2023-02-14T14:44:50.409Z,10.03
2023-02-14T14:47:23.011Z,11.03
2023-02-14T14:49:50.858Z,9.63
2023-02-14T14:52:47.564Z,11.27
2023-02-14T14:55:25.499Z,10.63
2023-02-14T14:57:57.263Z,9.63
2023-02-14T15:00:34.852Z,10.03
2023-02-14T15:03:05.221Z,10.00
2023-02-14T15:05:37.771Z,11.07
2023-02-14T15:08:23.006Z,9.87
2023-02-14T15:10:56.201Z,11.30
2023-02-14T15:13:49.939Z,11.53
2023-02-14T15:16:47.231Z,10.17
2023-02-14T15:19:35.137Z,11.50
2023-02-14T15:22:03.984Z,10.80
2023-02-14T15:24:33.748Z,10.10
2023-02-14T15:27:01.869Z,11.40
2023-02-14T15:29:33.471Z,12.07
2023-02-14T15:32:03.164Z,11.63
2023-02-14T15:34:36.674Z,11.90
2023-02-14T15:37:06.747Z,10.97
2023-02-14T15:39:53.432Z,11.70
2023-02-14T15:42:23.357Z,11.53
2023-02-14T15:44:50.974Z,11.50
2023-02-14T15:47:18.549Z,12.30
2023-02-14T15:49:46.910Z,13.50
2023-02-14T15:52:14.480Z,11.43
2023-02-14T15:54:46.264Z,12.13
2023-02-14T15:57:25.797Z,12.03
2023-02-14T15:59:54.368Z,10.67
2023-02-14T16:02:27.490Z,11.50
2023-02-14T16:04:54.858Z,11.93
2023-02-14T16:07:25.474Z,10.90
2023-02-14T16:10:26.024Z,11.27
2023-02-14T16:13:05.465Z,11.77
2023-02-14T16:15:42.823Z,12.23
2023-02-14T16:18:32.249Z,13.83
2023-02-14T16:21:10.384Z,12.03
2023-02-14T16:23:38.008Z,10.70
2023-02-14T16:26:08.687Z,11.83
2023-02-14T16:28:39.132Z,11.63
2023-02-14T16:31:10.987Z,10.77
2023-02-14T16:33:40.301Z,11.83
2023-02-14T16:36:19.382Z,14.40
2023-02-14T16:38:47.187Z,11.30
2023-02-14T16:41:17.215Z,10.23
2023-02-14T16:43:45.222Z,10.77
2023-02-14T16:46:14.551Z,10.87
2023-02-14T16:48:52.920Z,12.03
2023-02-14T16:51:22.263Z,11.53
2023-02-14T16:53:49.816Z,12.50
2023-02-14T16:56:24.469Z,12.23
2023-02-14T16:58:51.759Z,13.83
2023-02-14T17:01:19.272Z,12.33
2023-02-14T17:03:46.549Z,12.47
2023-02-14T17:06:18.159Z,11.73
2023-02-14T17:08:45.737Z,12.60
2023-02-14T17:11:13.667Z,12.77
2023-02-14T17:13:42.462Z,13.03
2023-02-14T17:16:11.324Z,14.07
2023-02-14T17:18:39.330Z,13.93
2023-02-14T17:21:07.058Z,12.47
2023-02-14T17:23:34.709Z,13.67
2023-02-14T17:26:02.482Z,12.07
2023-02-14T17:28:29.842Z,14.47
2023-02-14T17:30:58.831Z,16.90
2023-02-14T17:33:27.972Z,13.00
2023-02-14T17:35:55.708Z,13.87
2023-02-14T17:38:23.118Z,13.10
2023-02-14T17:40:50.399Z,13.23
2023-02-14T17:43:17.832Z,12.37
2023-02-14T17:45:45.084Z,17.27
2023-02-14T17:48:12.276Z,13.70
2023-02-14T17:50:40.314Z,14.83
2023-02-14T17:53:08.007Z,13.93
2023-02-14T17:55:37.136Z,15.77
2023-02-14T17:58:04.505Z,15.33
2023-02-14T18:00:31.972Z,12.97
2023-02-14T18:02:59.519Z,12.00
2023-02-14T18:05:26.836Z,10.70
2023-02-14T18:07:54.074Z,12.03
2023-02-14T18:10:22.079Z,14.90
2023-02-14T18:12:49.690Z,14.10
2023-02-14T18:15:17.147Z,11.87
2023-02-14T18:17:44.637Z,14.07
2023-02-14T18:20:12.236Z,13.13
2023-02-14T18:22:39.707Z,12.43
2023-02-14T18:25:07.745Z,15.30
2023-02-14T18:27:35.105Z,15.10
2023-02-14T18:30:02.506Z,15.73
2023-02-14T18:32:30.472Z,13.40
2023-02-14T18:34:57.906Z,12.03
2023-02-14T18:37:25.631Z,12.23
2023-02-14T18:39:52.876Z,15.70
2023-02-14T18:42:24.114Z,12.50
2023-02-14T18:44:51.580Z,12.43
2023-02-14T18:47:19.322Z,12.50
2023-02-14T18:49:46.855Z,11.80
2023-02-14T18:52:14.937Z,12.63
2023-02-14T18:54:46.907Z,11.40
2023-02-14T18:57:14.188Z,11.17
2023-02-14T18:59:43.928Z,11.23
2023-02-14T19:02:12.286Z,12.43
2023-02-14T19:04:40.132Z,11.80
2023-02-14T19:07:10.851Z,10.90
2023-02-14T19:09:40.831Z,10.00
2023-02-14T19:12:08.401Z,10.47
2023-02-14T19:14:36.734Z,10.23
2023-02-14T19:17:04.914Z,9.93
2023-02-14T19:19:32.339Z,13.70
2023-02-14T19:22:00.443Z,13.83
2023-02-14T19:24:27.756Z,12.20
2023-02-14T19:26:56.961Z,12.93
2023-02-14T19:29:24.844Z,11.43
2023-02-14T19:31:55.850Z,13.17
2023-02-14T19:34:29.483Z,10.70
2023-02-14T19:36:59.984Z,28.47
2023-02-14T19:39:30.502Z,17.70
2023-02-14T19:41:58.903Z,12.43
2023-02-14T19:44:26.238Z,11.30
2023-02-14T19:46:56.959Z,12.10
2023-02-14T19:49:25.110Z,11.13
2023-02-14T19:51:52.706Z,14.40
2023-02-14T19:54:22.317Z,12.37
2023-02-14T19:56:50.064Z,20.47
2023-02-14T19:59:20.989Z,13.37
2023-02-14T20:01:55.863Z,11.00
2023-02-14T20:04:25.257Z,12.73
2023-02-14T20:06:54.237Z,14.60
2023-02-14T20:09:22.445Z,13.23
2023-02-14T20:11:56.727Z,12.77
2023-02-14T20:14:29.343Z,13.07
2023-02-14T20:17:00.811Z,12.37
2023-02-14T20:19:33.195Z,12.67
2023-02-14T20:22:00.981Z,10.77
2023-02-14T20:24:30.267Z,9.10
2023-02-14T20:26:58.093Z,11.23
2023-02-14T20:29:26.073Z,11.67
2023-02-14T20:31:56.011Z,11.67
2023-02-14T20:34:24.209Z,11.90
2023-02-14T20:36:56.198Z,11.57
2023-02-14T20:39:28.237Z,11.03
2023-02-14T20:41:56.028Z,11.40
2023-02-14T20:44:24.790Z,10.63
2023-02-14T20:46:53.498Z,11.10
2023-02-14T20:49:21.894Z,11.83
2023-02-14T20:51:52.868Z,9.97
2023-02-14T20:54:21.548Z,9.37
2023-02-14T20:56:51.216Z,10.77
2023-02-14T20:59:19.662Z,10.53
2023-02-14T21:01:48.535Z,11.33
2023-02-14T21:04:17.101Z,10.40
2023-02-14T21:06:44.464Z,10.80
2023-02-14T21:09:16.428Z,9.93
2023-02-14T21:11:43.903Z,12.13
2023-02-14T21:14:11.909Z,10.07
2023-02-14T21:16:39.781Z,10.67
2023-02-14T21:19:07.445Z,10.53
2023-02-14T21:21:37.131Z,9.83
2023-02-14T21:24:15.016Z,10.93
2023-02-14T21:26:42.462Z,10.03
2023-02-14T21:29:10.733Z,8.87
2023-02-14T21:31:40.662Z,9.70
2023-02-14T21:34:08.529Z,9.93
2023-02-14T21:36:36.370Z,9.93
2023-02-14T21:39:04.558Z,9.47
2023-02-14T21:41:34.044Z,10.57
2023-02-14T21:44:01.527Z,10.00
2023-02-14T21:46:33.462Z,10.63
2023-02-14T21:49:23.694Z,9.93
2023-02-14T21:51:54.639Z,9.90
2023-02-14T21:54:23.210Z,9.50
2023-02-14T21:56:50.622Z,10.30
2023-02-14T21:59:18.088Z,9.87
2023-02-14T22:01:45.522Z,9.80
2023-02-14T22:04:13.527Z,10.37
2023-02-14T22:06:42.458Z,8.60
2023-02-14T22:09:11.367Z,9.23
2023-02-14T22:11:42.342Z,9.03
2023-02-14T22:14:09.827Z,8.53
2023-02-14T22:16:38.486Z,11.50
2023-02-14T22:19:06.527Z,10.10
2023-02-14T22:21:37.589Z,10.70
2023-02-14T22:24:05.232Z,8.70
2023-02-14T22:26:39.020Z,10.03
2023-02-14T22:29:07.536Z,9.33
2023-02-14T22:31:39.362Z,8.90
2023-02-14T22:34:11.896Z,9.70
2023-02-14T22:36:39.280Z,9.40
2023-02-14T22:39:07.342Z,9.17
2023-02-14T22:41:38.136Z,8.57
2023-02-14T22:44:06.254Z,9.73
2023-02-14T22:46:33.877Z,9.27
2023-02-14T22:49:01.292Z,8.70
2023-02-14T22:51:29.933Z,8.67
2023-02-14T22:53:59.117Z,9.83
2023-02-14T22:56:37.264Z,9.60
2023-02-14T22:59:06.823Z,8.73
2023-02-14T23:01:38.452Z,9.03
2023-02-14T23:04:06.664Z,8.93
2023-02-14T23:06:35.520Z,8.00
2023-02-14T23:09:03.741Z,9.13
2023-02-14T23:11:35.616Z,9.53
2023-02-14T23:14:21.671Z,9.17
2023-02-14T23:17:07.864Z,9.50
2023-02-14T23:19:54.907Z,10.37
2023-02-14T23:22:26.435Z,9.50
2023-02-14T23:24:55.703Z,10.23
2023-02-14T23:27:25.089Z,9.40
2023-02-14T23:29:54.406Z,9.37
2023-02-14T23:32:21.847Z,8.83
2023-02-14T23:34:49.215Z,8.90
2023-02-14T23:37:16.801Z,9.00
2023-02-14T23:39:44.295Z,9.23
2023-02-14T23:42:15.382Z,9.03
2023-02-14T23:44:46.193Z,8.30
2023-02-14T23:47:14.013Z,8.77
2023-02-14T23:49:41.704Z,8.70
2023-02-14T23:52:10.628Z,8.73
2023-02-14T23:54:38.246Z,8.70
2023-02-14T23:57:06.145Z,8.73
2023-02-14T23:59:33.810Z,9.23
